sensor_id;sensor_type;location;lat;lon;timestamp;temperature;humidity
51878;SHT31;37911;51.526;11.536;2022-07-29T00:00:23;16.60;57.55
51878;SHT31;37911;51.526;11.536;2022-07-29T00:03:31;16.69;56.88
51878;SHT31;37911;51.526;11.536;2022-07-29T00:06:35;16.75;56.29
51878;SHT31;37911;51.526;11.536;2022-07-29T00:09:54;16.81;55.67
51878;SHT31;37911;51.526;11.536;2022-07-29T00:13:50;16.91;55.60
51878;SHT31;37911;51.526;11.536;2022-07-29T00:16:55;17.03;55.01
51878;SHT31;37911;51.526;11.536;2022-07-29T00:20:02;17.11;55.47
51878;SHT31;37911;51.526;11.536;2022-07-29T00:23:07;17.04;55.57
51878;SHT31;37911;51.526;11.536;2022-07-29T00:26:12;17.04;55.33
51878;SHT31;37911;51.526;11.536;2022-07-29T00:29:16;17.10;54.98
51878;SHT31;37911;51.526;11.536;2022-07-29T00:32:25;17.18;54.50
51878;SHT31;37911;51.526;11.536;2022-07-29T00:35:32;17.21;53.87
51878;SHT31;37911;51.526;11.536;2022-07-29T00:38:58;17.30;53.89
51878;SHT31;37911;51.526;11.536;2022-07-29T00:42:48;17.34;53.93
51878;SHT31;37911;51.526;11.536;2022-07-29T00:46:01;17.31;54.61
51878;SHT31;37911;51.526;11.536;2022-07-29T00:49:05;17.35;54.62
51878;SHT31;37911;51.526;11.536;2022-07-29T00:52:13;17.31;54.53
51878;SHT31;37911;51.526;11.536;2022-07-29T00:55:17;17.27;54.97
51878;SHT31;37911;51.526;11.536;2022-07-29T00:58:22;17.11;55.72
51878;SHT31;37911;51.526;11.536;2022-07-29T01:01:26;17.07;55.59
51878;SHT31;37911;51.526;11.536;2022-07-29T01:04:31;17.06;55.12
51878;SHT31;37911;51.526;11.536;2022-07-29T01:07:39;17.07;54.67
51878;SHT31;37911;51.526;11.536;2022-07-29T01:10:44;17.08;54.79
51878;SHT31;37911;51.526;11.536;2022-07-29T01:13:49;17.10;54.82
51878;SHT31;37911;51.526;11.536;2022-07-29T01:16:58;17.11;54.27
51878;SHT31;37911;51.526;11.536;2022-07-29T01:20:12;17.17;54.50
51878;SHT31;37911;51.526;11.536;2022-07-29T01:23:52;17.16;54.76
51878;SHT31;37911;51.526;11.536;2022-07-29T01:27:06;17.14;55.10
51878;SHT31;37911;51.526;11.536;2022-07-29T01:30:16;17.10;55.65
51878;SHT31;37911;51.526;11.536;2022-07-29T01:33:22;16.96;56.43
51878;SHT31;37911;51.526;11.536;2022-07-29T01:36:43;16.83;56.97
51878;SHT31;37911;51.526;11.536;2022-07-29T01:39:49;16.76;57.27
51878;SHT31;37911;51.526;11.536;2022-07-29T01:42:57;16.70;55.96
51878;SHT31;37911;51.526;11.536;2022-07-29T01:46:10;16.79;56.15
51878;SHT31;37911;51.526;11.536;2022-07-29T01:49:29;16.81;55.14
51878;SHT31;37911;51.526;11.536;2022-07-29T01:52:39;16.90;54.70
51878;SHT31;37911;51.526;11.536;2022-07-29T01:55:45;16.96;54.11
51878;SHT31;37911;51.526;11.536;2022-07-29T01:58:51;17.00;54.43
51878;SHT31;37911;51.526;11.536;2022-07-29T02:02:00;17.06;53.93
51878;SHT31;37911;51.526;11.536;2022-07-29T02:05:06;17.03;54.42
51878;SHT31;37911;51.526;11.536;2022-07-29T02:08:12;17.07;55.08
51878;SHT31;37911;51.526;11.536;2022-07-29T02:11:17;17.10;55.07
51878;SHT31;37911;51.526;11.536;2022-07-29T02:14:22;17.07;54.58
51878;SHT31;37911;51.526;11.536;2022-07-29T02:17:33;17.11;55.00
51878;SHT31;37911;51.526;11.536;2022-07-29T02:20:39;17.08;54.19
51878;SHT31;37911;51.526;11.536;2022-07-29T02:23:45;17.07;54.09
51878;SHT31;37911;51.526;11.536;2022-07-29T02:26:52;17.14;54.22
51878;SHT31;37911;51.526;11.536;2022-07-29T02:29:58;17.13;53.99
51878;SHT31;37911;51.526;11.536;2022-07-29T02:33:07;17.14;53.96
51878;SHT31;37911;51.526;11.536;2022-07-29T02:36:12;17.18;53.39
51878;SHT31;37911;51.526;11.536;2022-07-29T02:39:23;17.20;53.04
51878;SHT31;37911;51.526;11.536;2022-07-29T02:42:30;17.18;53.69
51878;SHT31;37911;51.526;11.536;2022-07-29T02:45:36;17.13;55.87
51878;SHT31;37911;51.526;11.536;2022-07-29T02:48:50;17.11;55.52
51878;SHT31;37911;51.526;11.536;2022-07-29T02:52:00;17.02;54.90
51878;SHT31;37911;51.526;11.536;2022-07-29T02:55:06;17.03;54.77
51878;SHT31;37911;51.526;11.536;2022-07-29T02:58:15;16.97;54.56
51878;SHT31;37911;51.526;11.536;2022-07-29T03:01:26;16.96;54.41
51878;SHT31;37911;51.526;11.536;2022-07-29T03:04:35;16.99;54.28
51878;SHT31;37911;51.526;11.536;2022-07-29T03:07:45;17.00;54.21
51878;SHT31;37911;51.526;11.536;2022-07-29T03:10:51;17.04;54.13
51878;SHT31;37911;51.526;11.536;2022-07-29T03:13:56;17.00;54.09
51878;SHT31;37911;51.526;11.536;2022-07-29T03:17:01;16.94;54.15
51878;SHT31;37911;51.526;11.536;2022-07-29T03:20:10;17.00;54.92
51878;SHT31;37911;51.526;11.536;2022-07-29T03:23:18;16.94;54.82
51878;SHT31;37911;51.526;11.536;2022-07-29T03:26:23;16.97;54.21
51878;SHT31;37911;51.526;11.536;2022-07-29T03:29:28;16.93;54.84
51878;SHT31;37911;51.526;11.536;2022-07-29T03:32:33;16.97;54.44
51878;SHT31;37911;51.526;11.536;2022-07-29T03:35:40;16.91;54.62
51878;SHT31;37911;51.526;11.536;2022-07-29T03:38:46;16.90;55.01
51878;SHT31;37911;51.526;11.536;2022-07-29T03:41:54;16.87;55.09
51878;SHT31;37911;51.526;11.536;2022-07-29T03:45:02;16.88;55.45
51878;SHT31;37911;51.526;11.536;2022-07-29T03:48:10;16.87;55.42
51878;SHT31;37911;51.526;11.536;2022-07-29T03:51:19;16.88;56.20
51878;SHT31;37911;51.526;11.536;2022-07-29T03:54:36;16.76;56.42
51878;SHT31;37911;51.526;11.536;2022-07-29T03:57:40;16.67;55.72
51878;SHT31;37911;51.526;11.536;2022-07-29T04:00:48;16.76;55.70
51878;SHT31;37911;51.526;11.536;2022-07-29T04:03:53;16.76;55.74
51878;SHT31;37911;51.526;11.536;2022-07-29T04:07:00;16.80;55.45
51878;SHT31;37911;51.526;11.536;2022-07-29T04:10:05;16.79;55.58
51878;SHT31;37911;51.526;11.536;2022-07-29T04:13:09;16.83;55.50
51878;SHT31;37911;51.526;11.536;2022-07-29T04:16:13;16.84;55.88
51878;SHT31;37911;51.526;11.536;2022-07-29T04:19:17;16.86;55.41
51878;SHT31;37911;51.526;11.536;2022-07-29T04:22:28;16.88;55.24
51878;SHT31;37911;51.526;11.536;2022-07-29T04:25:37;16.97;55.16
51878;SHT31;37911;51.526;11.536;2022-07-29T04:28:42;17.02;54.96
51878;SHT31;37911;51.526;11.536;2022-07-29T04:31:46;17.07;54.61
51878;SHT31;37911;51.526;11.536;2022-07-29T04:34:51;17.14;54.86
51878;SHT31;37911;51.526;11.536;2022-07-29T04:37:59;17.17;54.88
51878;SHT31;37911;51.526;11.536;2022-07-29T04:41:03;17.18;55.01
51878;SHT31;37911;51.526;11.536;2022-07-29T04:44:09;17.28;54.36
51878;SHT31;37911;51.526;11.536;2022-07-29T04:47:16;17.35;54.05
51878;SHT31;37911;51.526;11.536;2022-07-29T04:50:21;17.40;54.03
51878;SHT31;37911;51.526;11.536;2022-07-29T04:53:29;17.38;54.11
51878;SHT31;37911;51.526;11.536;2022-07-29T04:56:48;17.45;54.10
51878;SHT31;37911;51.526;11.536;2022-07-29T04:59:56;17.41;54.44
51878;SHT31;37911;51.526;11.536;2022-07-29T05:03:04;17.47;54.43
51878;SHT31;37911;51.526;11.536;2022-07-29T05:06:24;17.54;54.31
51878;SHT31;37911;51.526;11.536;2022-07-29T05:09:42;17.55;53.67
51878;SHT31;37911;51.526;11.536;2022-07-29T05:12:57;17.55;53.95
51878;SHT31;37911;51.526;11.536;2022-07-29T05:16:03;17.62;54.23
51878;SHT31;37911;51.526;11.536;2022-07-29T05:19:10;17.68;54.29
51878;SHT31;37911;51.526;11.536;2022-07-29T05:22:25;17.71;54.22
51878;SHT31;37911;51.526;11.536;2022-07-29T05:25:33;17.77;53.85
51878;SHT31;37911;51.526;11.536;2022-07-29T05:28:40;17.83;53.85
51878;SHT31;37911;51.526;11.536;2022-07-29T05:31:45;17.91;54.45
51878;SHT31;37911;51.526;11.536;2022-07-29T05:34:51;17.99;53.69
51878;SHT31;37911;51.526;11.536;2022-07-29T05:38:07;18.05;53.58
51878;SHT31;37911;51.526;11.536;2022-07-29T05:41:20;18.03;53.68
51878;SHT31;37911;51.526;11.536;2022-07-29T05:44:27;18.03;53.70
51878;SHT31;37911;51.526;11.536;2022-07-29T05:47:31;18.05;53.67
51878;SHT31;37911;51.526;11.536;2022-07-29T05:50:40;18.09;53.50
51878;SHT31;37911;51.526;11.536;2022-07-29T05:54:00;18.09;53.34
51878;SHT31;37911;51.526;11.536;2022-07-29T05:57:09;18.12;54.01
51878;SHT31;37911;51.526;11.536;2022-07-29T06:00:25;18.26;53.30
51878;SHT31;37911;51.526;11.536;2022-07-29T06:03:32;18.25;53.58
51878;SHT31;37911;51.526;11.536;2022-07-29T06:06:38;18.37;53.25
51878;SHT31;37911;51.526;11.536;2022-07-29T06:09:47;18.43;52.92
51878;SHT31;37911;51.526;11.536;2022-07-29T06:12:55;18.61;52.79
51878;SHT31;37911;51.526;11.536;2022-07-29T06:16:00;18.76;52.17
51878;SHT31;37911;51.526;11.536;2022-07-29T06:19:18;18.98;51.93
51878;SHT31;37911;51.526;11.536;2022-07-29T06:22:34;19.00;51.79
51878;SHT31;37911;51.526;11.536;2022-07-29T06:30:35;19.07;51.49
51878;SHT31;37911;51.526;11.536;2022-07-29T06:38:44;18.97;51.96
51878;SHT31;37911;51.526;11.536;2022-07-29T06:42:18;19.11;51.75
51878;SHT31;37911;51.526;11.536;2022-07-29T06:49:59;19.27;52.22
51878;SHT31;37911;51.526;11.536;2022-07-29T06:53:03;19.25;51.62
51878;SHT31;37911;51.526;11.536;2022-07-29T06:56:25;19.28;51.59
51878;SHT31;37911;51.526;11.536;2022-07-29T06:59:35;19.51;51.57
51878;SHT31;37911;51.526;11.536;2022-07-29T07:03:05;19.83;50.54
51878;SHT31;37911;51.526;11.536;2022-07-29T07:07:01;20.02;49.31
51878;SHT31;37911;51.526;11.536;2022-07-29T07:14:21;19.97;49.50
51878;SHT31;37911;51.526;11.536;2022-07-29T07:17:27;20.20;49.08
51878;SHT31;37911;51.526;11.536;2022-07-29T07:20:33;20.54;48.02
51878;SHT31;37911;51.526;11.536;2022-07-29T07:23:40;21.29;46.92
51878;SHT31;37911;51.526;11.536;2022-07-29T07:26:50;21.96;44.01
51878;SHT31;37911;51.526;11.536;2022-07-29T07:29:56;22.81;43.23
51878;SHT31;37911;51.526;11.536;2022-07-29T07:33:01;23.41;42.44
51878;SHT31;37911;51.526;11.536;2022-07-29T07:36:06;23.99;40.67
51878;SHT31;37911;51.526;11.536;2022-07-29T07:39:14;24.51;39.52
51878;SHT31;37911;51.526;11.536;2022-07-29T07:42:27;24.27;39.07
51878;SHT31;37911;51.526;11.536;2022-07-29T07:45:32;23.38;40.53
51878;SHT31;37911;51.526;11.536;2022-07-29T07:48:40;23.97;39.92
51878;SHT31;37911;51.526;11.536;2022-07-29T07:51:44;23.96;39.30
51878;SHT31;37911;51.526;11.536;2022-07-29T07:54:53;24.07;38.64
51878;SHT31;37911;51.526;11.536;2022-07-29T07:58:01;24.82;38.44
51878;SHT31;37911;51.526;11.536;2022-07-29T08:01:05;25.08;36.61
51878;SHT31;37911;51.526;11.536;2022-07-29T08:04:15;25.62;36.73
51878;SHT31;37911;51.526;11.536;2022-07-29T08:07:26;25.90;36.39
51878;SHT31;37911;51.526;11.536;2022-07-29T08:10:37;25.77;35.73
51878;SHT31;37911;51.526;11.536;2022-07-29T08:13:56;25.87;36.06
51878;SHT31;37911;51.526;11.536;2022-07-29T08:17:02;26.02;36.02
51878;SHT31;37911;51.526;11.536;2022-07-29T08:20:09;26.14;35.87
51878;SHT31;37911;51.526;11.536;2022-07-29T08:23:13;26.11;36.34
51878;SHT31;37911;51.526;11.536;2022-07-29T08:26:25;26.52;35.29
51878;SHT31;37911;51.526;11.536;2022-07-29T08:29:30;26.58;34.77
51878;SHT31;37911;51.526;11.536;2022-07-29T08:32:34;26.71;35.22
51878;SHT31;37911;51.526;11.536;2022-07-29T08:35:41;26.78;34.78
51878;SHT31;37911;51.526;11.536;2022-07-29T08:38:48;26.38;35.67
51878;SHT31;37911;51.526;11.536;2022-07-29T08:41:55;26.14;35.52
51878;SHT31;37911;51.526;11.536;2022-07-29T08:44:59;26.32;35.18
51878;SHT31;37911;51.526;11.536;2022-07-29T08:48:04;26.59;35.24
51878;SHT31;37911;51.526;11.536;2022-07-29T08:51:13;26.16;35.86
51878;SHT31;37911;51.526;11.536;2022-07-29T08:54:26;26.31;35.41
51878;SHT31;37911;51.526;11.536;2022-07-29T08:57:36;26.32;36.01
51878;SHT31;37911;51.526;11.536;2022-07-29T09:00:47;26.44;36.19
51878;SHT31;37911;51.526;11.536;2022-07-29T09:03:55;27.22;34.77
51878;SHT31;37911;51.526;11.536;2022-07-29T09:07:03;27.60;33.73
51878;SHT31;37911;51.526;11.536;2022-07-29T09:10:10;27.50;34.28
51878;SHT31;37911;51.526;11.536;2022-07-29T09:13:17;27.68;34.41
51878;SHT31;37911;51.526;11.536;2022-07-29T09:16:43;27.20;34.24
51878;SHT31;37911;51.526;11.536;2022-07-29T09:19:48;27.07;34.63
51878;SHT31;37911;51.526;11.536;2022-07-29T09:22:53;27.60;34.91
51878;SHT31;37911;51.526;11.536;2022-07-29T09:26:05;28.01;33.53
51878;SHT31;37911;51.526;11.536;2022-07-29T09:29:13;27.87;33.91
51878;SHT31;37911;51.526;11.536;2022-07-29T09:32:24;28.12;33.85
51878;SHT31;37911;51.526;11.536;2022-07-29T09:35:30;27.66;33.97
51878;SHT31;37911;51.526;11.536;2022-07-29T09:39:00;28.51;32.87
51878;SHT31;37911;51.526;11.536;2022-07-29T09:42:06;28.59;32.39
51878;SHT31;37911;51.526;11.536;2022-07-29T09:45:27;28.96;31.94
51878;SHT31;37911;51.526;11.536;2022-07-29T09:48:38;29.24;31.22
51878;SHT31;37911;51.526;11.536;2022-07-29T09:51:42;29.53;30.82
51878;SHT31;37911;51.526;11.536;2022-07-29T09:54:46;29.97;30.52
51878;SHT31;37911;51.526;11.536;2022-07-29T09:57:50;29.82;29.64
51878;SHT31;37911;51.526;11.536;2022-07-29T10:00:57;30.18;29.70
51878;SHT31;37911;51.526;11.536;2022-07-29T10:04:01;29.98;28.71
51878;SHT31;37911;51.526;11.536;2022-07-29T10:07:05;30.32;29.27
51878;SHT31;37911;51.526;11.536;2022-07-29T10:10:19;30.02;29.42
51878;SHT31;37911;51.526;11.536;2022-07-29T10:13:25;30.59;28.76
51878;SHT31;37911;51.526;11.536;2022-07-29T10:16:32;30.40;28.69
51878;SHT31;37911;51.526;11.536;2022-07-29T10:19:37;30.66;28.60
51878;SHT31;37911;51.526;11.536;2022-07-29T10:22:43;29.89;29.18
51878;SHT31;37911;51.526;11.536;2022-07-29T10:25:47;30.08;28.99
51878;SHT31;37911;51.526;11.536;2022-07-29T10:28:51;30.91;28.17
51878;SHT31;37911;51.526;11.536;2022-07-29T10:32:11;30.60;27.96
51878;SHT31;37911;51.526;11.536;2022-07-29T10:35:31;30.62;28.18
51878;SHT31;37911;51.526;11.536;2022-07-29T10:38:45;30.53;28.05
51878;SHT31;37911;51.526;11.536;2022-07-29T10:42:12;30.18;28.98
51878;SHT31;37911;51.526;11.536;2022-07-29T10:45:18;30.14;28.86
51878;SHT31;37911;51.526;11.536;2022-07-29T10:48:26;30.42;29.43
51878;SHT31;37911;51.526;11.536;2022-07-29T10:51:51;30.90;28.50
51878;SHT31;37911;51.526;11.536;2022-07-29T10:54:55;31.13;26.97
51878;SHT31;37911;51.526;11.536;2022-07-29T10:58:15;31.27;27.04
51878;SHT31;37911;51.526;11.536;2022-07-29T11:01:28;31.41;27.20
51878;SHT31;37911;51.526;11.536;2022-07-29T11:05:02;31.38;26.51
51878;SHT31;37911;51.526;11.536;2022-07-29T11:08:25;30.60;27.52
51878;SHT31;37911;51.526;11.536;2022-07-29T11:11:32;29.88;27.44
51878;SHT31;37911;51.526;11.536;2022-07-29T11:15:15;29.27;28.83
51878;SHT31;37911;51.526;11.536;2022-07-29T11:18:22;29.47;28.94
51878;SHT31;37911;51.526;11.536;2022-07-29T11:21:39;29.67;29.08
51878;SHT31;37911;51.526;11.536;2022-07-29T11:25:13;29.65;27.60
51878;SHT31;37911;51.526;11.536;2022-07-29T11:28:19;29.58;27.87
51878;SHT31;37911;51.526;11.536;2022-07-29T11:31:37;29.53;27.44
51878;SHT31;37911;51.526;11.536;2022-07-29T11:38:34;29.23;28.17
51878;SHT31;37911;51.526;11.536;2022-07-29T11:41:44;29.06;29.04
51878;SHT31;37911;51.526;11.536;2022-07-29T11:44:54;29.03;28.75
51878;SHT31;37911;51.526;11.536;2022-07-29T11:47:59;28.92;29.71
51878;SHT31;37911;51.526;11.536;2022-07-29T11:51:09;28.86;29.09
51878;SHT31;37911;51.526;11.536;2022-07-29T11:54:24;28.66;29.48
51878;SHT31;37911;51.526;11.536;2022-07-29T11:57:34;28.52;29.85
51878;SHT31;37911;51.526;11.536;2022-07-29T12:00:40;28.37;30.20
51878;SHT31;37911;51.526;11.536;2022-07-29T12:03:47;28.31;30.35
51878;SHT31;37911;51.526;11.536;2022-07-29T12:06:52;28.05;29.53
51878;SHT31;37911;51.526;11.536;2022-07-29T12:10:00;28.24;29.58
51878;SHT31;37911;51.526;11.536;2022-07-29T12:13:05;28.31;29.44
51878;SHT31;37911;51.526;11.536;2022-07-29T12:16:11;28.31;29.97
51878;SHT31;37911;51.526;11.536;2022-07-29T12:19:21;28.45;28.93
51878;SHT31;37911;51.526;11.536;2022-07-29T12:22:35;28.72;29.40
51878;SHT31;37911;51.526;11.536;2022-07-29T12:25:44;28.78;28.99
51878;SHT31;37911;51.526;11.536;2022-07-29T12:28:50;29.20;28.77
51878;SHT31;37911;51.526;11.536;2022-07-29T12:31:55;29.95;28.11
51878;SHT31;37911;51.526;11.536;2022-07-29T12:35:02;30.59;26.75
51878;SHT31;37911;51.526;11.536;2022-07-29T12:38:06;30.87;26.33
51878;SHT31;37911;51.526;11.536;2022-07-29T12:41:15;31.09;25.73
51878;SHT31;37911;51.526;11.536;2022-07-29T12:44:20;31.51;25.74
51878;SHT31;37911;51.526;11.536;2022-07-29T12:47:25;30.87;25.78
51878;SHT31;37911;51.526;11.536;2022-07-29T12:50:29;30.63;26.23
51878;SHT31;37911;51.526;11.536;2022-07-29T12:53:35;30.75;26.54
51878;SHT31;37911;51.526;11.536;2022-07-29T12:56:44;31.06;26.20
51878;SHT31;37911;51.526;11.536;2022-07-29T12:59:59;31.16;25.58
51878;SHT31;37911;51.526;11.536;2022-07-29T13:03:04;30.46;25.98
51878;SHT31;37911;51.526;11.536;2022-07-29T13:06:30;30.43;26.84
51878;SHT31;37911;51.526;11.536;2022-07-29T13:09:38;30.39;26.45
51878;SHT31;37911;51.526;11.536;2022-07-29T13:13:04;30.69;26.28
51878;SHT31;37911;51.526;11.536;2022-07-29T13:16:09;31.01;25.88
51878;SHT31;37911;51.526;11.536;2022-07-29T13:19:13;31.31;25.66
51878;SHT31;37911;51.526;11.536;2022-07-29T13:22:19;31.34;24.55
51878;SHT31;37911;51.526;11.536;2022-07-29T13:25:27;30.91;24.51
51878;SHT31;37911;51.526;11.536;2022-07-29T13:28:58;30.96;25.59
51878;SHT31;37911;51.526;11.536;2022-07-29T13:32:03;31.35;24.90
51878;SHT31;37911;51.526;11.536;2022-07-29T13:35:11;31.40;25.13
51878;SHT31;37911;51.526;11.536;2022-07-29T13:38:15;31.50;25.61
51878;SHT31;37911;51.526;11.536;2022-07-29T13:41:20;31.63;24.96
51878;SHT31;37911;51.526;11.536;2022-07-29T13:44:27;31.45;24.80
51878;SHT31;37911;51.526;11.536;2022-07-29T13:47:32;31.47;24.51
51878;SHT31;37911;51.526;11.536;2022-07-29T13:50:37;31.57;24.11
51878;SHT31;37911;51.526;11.536;2022-07-29T13:53:41;31.94;24.64
51878;SHT31;37911;51.526;11.536;2022-07-29T13:56:46;31.85;24.54
51878;SHT31;37911;51.526;11.536;2022-07-29T13:59:55;31.67;24.40
51878;SHT31;37911;51.526;11.536;2022-07-29T14:02:59;31.64;24.04
51878;SHT31;37911;51.526;11.536;2022-07-29T14:06:04;31.60;24.34
51878;SHT31;37911;51.526;11.536;2022-07-29T14:09:09;31.80;24.39
51878;SHT31;37911;51.526;11.536;2022-07-29T14:12:15;31.84;24.24
51878;SHT31;37911;51.526;11.536;2022-07-29T14:15:23;31.68;23.73
51878;SHT31;37911;51.526;11.536;2022-07-29T14:18:28;31.35;23.89
51878;SHT31;37911;51.526;11.536;2022-07-29T14:21:32;31.65;24.18
51878;SHT31;37911;51.526;11.536;2022-07-29T14:24:39;31.94;24.34
51878;SHT31;37911;51.526;11.536;2022-07-29T14:27:44;32.53;23.85
51878;SHT31;37911;51.526;11.536;2022-07-29T14:31:08;32.75;24.10
51878;SHT31;37911;51.526;11.536;2022-07-29T14:34:17;32.14;24.03
51878;SHT31;37911;51.526;11.536;2022-07-29T14:37:29;32.02;24.34
51878;SHT31;37911;51.526;11.536;2022-07-29T14:40:38;32.02;24.87
51878;SHT31;37911;51.526;11.536;2022-07-29T14:43:45;31.63;24.54
51878;SHT31;37911;51.526;11.536;2022-07-29T14:47:02;31.27;24.49
51878;SHT31;37911;51.526;11.536;2022-07-29T14:54:33;30.59;25.72
51878;SHT31;37911;51.526;11.536;2022-07-29T14:58:01;30.36;26.03
51878;SHT31;37911;51.526;11.536;2022-07-29T15:01:44;30.40;25.71
51878;SHT31;37911;51.526;11.536;2022-07-29T15:05:23;30.46;25.85
51878;SHT31;37911;51.526;11.536;2022-07-29T15:13:19;29.89;26.56
51878;SHT31;37911;51.526;11.536;2022-07-29T15:16:24;29.57;26.81
51878;SHT31;37911;51.526;11.536;2022-07-29T15:20:46;29.60;27.55
51878;SHT31;37911;51.526;11.536;2022-07-29T15:24:13;29.64;26.98
51878;SHT31;37911;51.526;11.536;2022-07-29T15:31:52;29.85;26.74
51878;SHT31;37911;51.526;11.536;2022-07-29T15:35:02;29.78;26.24
51878;SHT31;37911;51.526;11.536;2022-07-29T15:38:39;29.87;27.16
51878;SHT31;37911;51.526;11.536;2022-07-29T15:42:02;29.82;26.13
51878;SHT31;37911;51.526;11.536;2022-07-29T15:45:48;29.54;26.42
51878;SHT31;37911;51.526;11.536;2022-07-29T15:49:10;29.29;26.63
51878;SHT31;37911;51.526;11.536;2022-07-29T15:53:06;29.04;27.20
51878;SHT31;37911;51.526;11.536;2022-07-29T16:00:51;29.19;26.98
51878;SHT31;37911;51.526;11.536;2022-07-29T16:04:12;28.93;27.31
51878;SHT31;37911;51.526;11.536;2022-07-29T16:08:17;28.89;27.26
51878;SHT31;37911;51.526;11.536;2022-07-29T16:12:04;28.83;27.34
51878;SHT31;37911;51.526;11.536;2022-07-29T16:15:24;28.78;27.54
51878;SHT31;37911;51.526;11.536;2022-07-29T16:18:51;28.55;27.72
51878;SHT31;37911;51.526;11.536;2022-07-29T16:22:11;28.52;28.10
51878;SHT31;37911;51.526;11.536;2022-07-29T16:25:35;28.51;27.93
51878;SHT31;37911;51.526;11.536;2022-07-29T16:29:02;28.44;28.11
51878;SHT31;37911;51.526;11.536;2022-07-29T16:32:33;28.47;28.05
51878;SHT31;37911;51.526;11.536;2022-07-29T16:36:52;28.42;28.37
51878;SHT31;37911;51.526;11.536;2022-07-29T16:40:27;28.42;27.98
51878;SHT31;37911;51.526;11.536;2022-07-29T16:52:33;28.12;28.49
51878;SHT31;37911;51.526;11.536;2022-07-29T16:56:19;28.09;28.32
51878;SHT31;37911;51.526;11.536;2022-07-29T16:59:41;28.05;28.43
51878;SHT31;37911;51.526;11.536;2022-07-29T17:02:44;28.04;28.82
51878;SHT31;37911;51.526;11.536;2022-07-29T17:05:48;28.05;28.85
51878;SHT31;37911;51.526;11.536;2022-07-29T17:08:54;28.04;28.75
51878;SHT31;37911;51.526;11.536;2022-07-29T17:11:57;28.00;29.19
51878;SHT31;37911;51.526;11.536;2022-07-29T17:15:00;27.94;28.48
51878;SHT31;37911;51.526;11.536;2022-07-29T17:18:04;27.87;29.03
51878;SHT31;37911;51.526;11.536;2022-07-29T17:21:08;27.90;28.89
51878;SHT31;37911;51.526;11.536;2022-07-29T17:24:14;27.93;29.23
51878;SHT31;37911;51.526;11.536;2022-07-29T17:27:17;27.90;29.11
51878;SHT31;37911;51.526;11.536;2022-07-29T17:30:21;27.83;29.01
51878;SHT31;37911;51.526;11.536;2022-07-29T17:33:24;27.76;29.44
51878;SHT31;37911;51.526;11.536;2022-07-29T17:36:27;27.66;29.07
51878;SHT31;37911;51.526;11.536;2022-07-29T17:39:39;27.67;29.25
51878;SHT31;37911;51.526;11.536;2022-07-29T17:42:44;27.60;29.77
51878;SHT31;37911;51.526;11.536;2022-07-29T17:45:47;27.53;29.55
51878;SHT31;37911;51.526;11.536;2022-07-29T17:48:51;27.49;29.52
51878;SHT31;37911;51.526;11.536;2022-07-29T17:51:55;27.49;29.80
51878;SHT31;37911;51.526;11.536;2022-07-29T17:55:00;27.42;30.28
51878;SHT31;37911;51.526;11.536;2022-07-29T17:58:04;27.30;31.24
51878;SHT31;37911;51.526;11.536;2022-07-29T18:01:08;27.20;30.91
51878;SHT31;37911;51.526;11.536;2022-07-29T18:04:12;27.09;31.12
51878;SHT31;37911;51.526;11.536;2022-07-29T18:07:25;27.02;31.03
51878;SHT31;37911;51.526;11.536;2022-07-29T18:10:37;26.95;31.20
51878;SHT31;37911;51.526;11.536;2022-07-29T18:13:41;26.91;31.55
51878;SHT31;37911;51.526;11.536;2022-07-29T18:16:44;26.81;31.82
51878;SHT31;37911;51.526;11.536;2022-07-29T18:19:48;26.59;32.77
51878;SHT31;37911;51.526;11.536;2022-07-29T18:22:52;26.44;33.89
51878;SHT31;37911;51.526;11.536;2022-07-29T18:25:58;26.38;35.33
51878;SHT31;37911;51.526;11.536;2022-07-29T18:29:01;26.37;36.23
51878;SHT31;37911;51.526;11.536;2022-07-29T18:32:05;26.20;37.20
51878;SHT31;37911;51.526;11.536;2022-07-29T18:35:12;26.18;37.49
51878;SHT31;37911;51.526;11.536;2022-07-29T18:38:16;26.10;38.27
51878;SHT31;37911;51.526;11.536;2022-07-29T18:41:23;26.01;38.99
51878;SHT31;37911;51.526;11.536;2022-07-29T18:44:27;25.96;39.75
51878;SHT31;37911;51.526;11.536;2022-07-29T18:47:30;25.88;40.35
51878;SHT31;37911;51.526;11.536;2022-07-29T18:50:34;25.76;41.33
51878;SHT31;37911;51.526;11.536;2022-07-29T18:53:37;25.69;41.87
51878;SHT31;37911;51.526;11.536;2022-07-29T18:56:44;25.56;42.51
51878;SHT31;37911;51.526;11.536;2022-07-29T18:59:47;25.53;42.96
51878;SHT31;37911;51.526;11.536;2022-07-29T19:02:52;25.46;44.24
51878;SHT31;37911;51.526;11.536;2022-07-29T19:05:56;25.37;44.51
51878;SHT31;37911;51.526;11.536;2022-07-29T19:08:59;25.33;44.40
51878;SHT31;37911;51.526;11.536;2022-07-29T19:12:05;25.22;44.82
51878;SHT31;37911;51.526;11.536;2022-07-29T19:15:10;25.19;46.12
51878;SHT31;37911;51.526;11.536;2022-07-29T19:18:13;25.09;46.29
51878;SHT31;37911;51.526;11.536;2022-07-29T19:21:16;24.91;47.03
51878;SHT31;37911;51.526;11.536;2022-07-29T19:24:20;24.88;46.95
51878;SHT31;37911;51.526;11.536;2022-07-29T19:27:26;24.79;46.07
51878;SHT31;37911;51.526;11.536;2022-07-29T19:30:30;24.76;46.18
51878;SHT31;37911;51.526;11.536;2022-07-29T19:33:33;24.71;46.82
51878;SHT31;37911;51.526;11.536;2022-07-29T19:36:37;24.58;47.75
51878;SHT31;37911;51.526;11.536;2022-07-29T19:39:41;24.52;48.04
51878;SHT31;37911;51.526;11.536;2022-07-29T19:42:47;24.45;48.69
51878;SHT31;37911;51.526;11.536;2022-07-29T19:45:52;24.38;47.63
51878;SHT31;37911;51.526;11.536;2022-07-29T19:48:55;24.34;46.94
51878;SHT31;37911;51.526;11.536;2022-07-29T19:51:58;24.24;48.08
51878;SHT31;37911;51.526;11.536;2022-07-29T19:55:02;24.17;48.08
51878;SHT31;37911;51.526;11.536;2022-07-29T19:58:08;24.11;47.56
51878;SHT31;37911;51.526;11.536;2022-07-29T20:01:11;24.07;47.34
51878;SHT31;37911;51.526;11.536;2022-07-29T20:04:22;24.01;47.22
51878;SHT31;37911;51.526;11.536;2022-07-29T20:07:32;23.96;47.56
51878;SHT31;37911;51.526;11.536;2022-07-29T20:10:38;23.92;47.32
51878;SHT31;37911;51.526;11.536;2022-07-29T20:13:44;23.87;46.56
51878;SHT31;37911;51.526;11.536;2022-07-29T20:16:48;23.84;46.64
51878;SHT31;37911;51.526;11.536;2022-07-29T20:19:53;23.79;46.78
51878;SHT31;37911;51.526;11.536;2022-07-29T20:22:59;23.76;47.53
51878;SHT31;37911;51.526;11.536;2022-07-29T20:26:03;23.65;47.58
51878;SHT31;37911;51.526;11.536;2022-07-29T20:29:09;23.53;48.27
51878;SHT31;37911;51.526;11.536;2022-07-29T20:32:13;23.49;47.75